Time;durP1;ratioP1;P1;durP2;ratioP2;P2;SDS_P1;SDS_P2;PMS_P1;PMS_P2;Temp;Humidity;BMP_temperature;BMP_pressure;BME280_temperature;BME280_humidity;BME280_pressure;Samples;Min_cycle;Max_cycle;Signal;HPM_P1;HPM_P2
2022/07/21 00:01:03;;;;;;;8.05;6.47;;;;;;;;;;6211956;23;20008;-82
2022/07/21 00:03:29;;;;;;;8.27;7.43;;;;;;;;;;6211519;23;20016;-82
2022/07/21 00:05:55;;;;;;;9.10;7.22;;;;;;;;;;6212327;23;20015;-83
2022/07/21 00:08:21;;;;;;;6.82;6.32;;;;;;;;;;6185347;23;20058;-81
2022/07/21 00:10:47;;;;;;;7.38;6.78;;;;;;;;;;6211778;23;20390;-81
2022/07/21 00:13:13;;;;;;;6.50;5.93;;;;;;;;;;6211841;23;19997;-82
2022/07/21 00:15:40;;;;;;;7.03;6.32;;;;;;;;;;6212289;23;20071;-82
2022/07/21 00:18:06;;;;;;;9.15;8.10;;;;;;;;;;6211223;23;20008;-82
2022/07/21 00:20:32;;;;;;;8.27;7.53;;;;;;;;;;6211159;23;20003;-81
2022/07/21 00:22:59;;;;;;;10.43;7.60;;;;;;;;;;6211661;23;20385;-81
2022/07/21 00:25:25;;;;;;;9.13;6.60;;;;;;;;;;6211865;23;20004;-82
2022/07/21 00:27:51;;;;;;;7.55;6.75;;;;;;;;;;6210449;23;20011;-81
2022/07/21 00:30:17;;;;;;;8.35;7.65;;;;;;;;;;6211884;23;20020;-81
2022/07/21 00:32:43;;;;;;;8.52;7.78;;;;;;;;;;6211869;23;20563;-82
2022/07/21 00:35:10;;;;;;;7.10;6.60;;;;;;;;;;6211799;23;19996;-81
2022/07/21 00:37:36;;;;;;;6.20;5.85;;;;;;;;;;6211036;23;20066;-81
2022/07/21 00:40:03;;;;;;;6.53;6.00;;;;;;;;;;6212140;23;20446;-81
2022/07/21 00:42:31;;;;;;;8.17;7.37;;;23.40;63.70;;;;;;6211771;23;20343;-82
2022/07/21 00:44:57;;;;;;;6.80;6.32;;;;;;;;;;6184981;23;20009;-82
2022/07/21 00:47:26;;;;;;;7.53;6.93;;;;;;;;;;6211861;23;20000;-81
2022/07/21 00:49:53;;;;;;;7.25;6.75;;;;;;;;;;6211206;23;20012;-81
2022/07/21 00:52:19;;;;;;;8.70;6.87;;;;;;;;;;6184768;23;20454;-82
2022/07/21 00:54:45;;;;;;;12.52;6.25;;;;;;;;;;6211134;23;20239;-81
2022/07/21 00:57:12;;;;;;;7.90;7.30;;;;;;;;;;6211470;23;20691;-83
2022/07/21 00:59:38;;;;;;;7.03;6.57;;;;;;;;;;6211505;23;19996;-82
2022/07/21 01:02:04;;;;;;;7.20;6.60;;;;;;;;;;6211115;23;20005;-82
2022/07/21 01:04:30;;;;;;;7.07;6.45;;;;;;;;;;6211385;23;20017;-82
2022/07/21 01:06:57;;;;;;;7.78;7.13;;;;;;;;;;6211240;23;20005;-82
2022/07/21 01:09:24;;;;;;;7.40;6.90;;;;;;;;;;6211217;23;20011;-82
2022/07/21 01:11:50;;;;;;;7.53;6.80;;;;;;;;;;6211304;23;20001;-82
2022/07/21 01:14:16;;;;;;;6.22;5.93;;;22.60;65.90;;;;;;6210994;23;20050;-82
2022/07/21 01:16:43;;;;;;;7.38;6.68;;;;;;;;;;6211815;23;20008;-82
2022/07/21 01:19:10;;;;;;;7.78;7.22;;;;;;;;;;6211441;23;20000;-82
2022/07/21 01:21:40;;;;;;;12.10;6.80;;;;;;;;;;6211364;23;20005;-82
2022/07/21 01:24:06;;;;;;;9.35;8.45;;;;;;;;;;6211382;23;20005;-81
2022/07/21 01:26:40;;;;;;;9.25;8.45;;;;;;;;;;6211550;23;20092;-82
2022/07/21 01:29:06;;;;;;;8.68;7.97;;;;;;;;;;6211037;23;20012;-81
2022/07/21 01:31:32;;;;;;;8.95;8.25;;;;;;;;;;6211628;23;20008;-82
2022/07/21 01:33:58;;;;;;;8.10;7.25;;;;;;;;;;6210499;23;20447;-82
2022/07/21 01:36:24;;;;;;;10.15;7.40;;;;;;;;;;6211343;23;20008;-81
2022/07/21 01:41:34;;;;;;;9.25;8.32;;;;;;;;;;6211110;23;20131;-82
2022/07/21 01:44:02;;;;;;;7.65;7.05;;;;;;;;;;6210969;23;20000;-82
2022/07/21 01:46:30;;;;;;;7.57;6.97;;;;;;;;;;6211691;23;20008;-81
2022/07/21 01:48:56;;;;;;;6.93;6.00;;;;;;;;;;6211006;23;20383;-81
2022/07/21 01:51:22;;;;;;;7.53;6.90;;;;;;;;;;6210365;23;20103;-82
2022/07/21 01:53:48;;;;;;;7.10;6.57;;;;;;;;;;6210885;23;20001;-82
2022/07/21 01:56:15;;;;;;;7.18;6.68;;;;;;;;;;6211273;23;20011;-83
2022/07/21 01:58:41;;;;;;;9.25;8.48;;;;;;;;;;6211015;23;20051;-82
2022/07/21 02:01:07;;;;;;;8.68;6.90;;;;;;;;;;6211843;23;20407;-82
2022/07/21 02:03:33;;;;;;;7.63;7.13;;;;;;;;;;6211031;23;20017;-81
2022/07/21 02:06:04;;;;;;;7.60;7.00;;;;;;;;;;6210925;23;20083;-82
2022/07/21 02:08:30;;;;;;;8.30;7.07;;;;;;;;;;6210636;23;20008;-81
2022/07/21 02:10:56;;;;;;;8.20;7.38;;;;;;;;;;6210416;23;20019;-81
2022/07/21 02:13:22;;;;;;;8.30;7.57;;;;;;;;;;6211365;23;19996;-82
2022/07/21 02:15:48;;;;;;;8.68;8.07;;;;;;;;;;6211053;23;20024;-81
2022/07/21 02:18:14;;;;;;;9.23;7.82;;;;;;;;;;6210670;23;20368;-81
2022/07/21 02:20:40;;;;;;;8.40;7.60;;;;;;;;;;6210524;23;20004;-81
2022/07/21 02:23:06;;;;;;;8.73;8.07;;;;;;;;;;6210736;23;20507;-82
2022/07/21 02:25:32;;;;;;;8.52;7.90;;;;;;;;;;6211026;23;20047;-82
2022/07/21 02:27:58;;;;;;;8.52;7.93;;;;;;;;;;6210112;23;20008;-81
2022/07/21 02:30:24;;;;;;;9.85;9.05;;;;;;;;;;6210813;23;20486;-81
2022/07/21 02:32:50;;;;;;;10.48;9.68;;;;;;;;;;6210684;23;20009;-82
2022/07/21 02:35:16;;;;;;;10.32;9.35;;;;;;;;;;6184066;23;20005;-81
2022/07/21 02:37:42;;;;;;;10.02;8.60;;;;;;;;;;6210425;23;20558;-83
2022/07/21 02:40:08;;;;;;;8.38;7.75;;;;;;;;;;6210208;23;20075;-81
2022/07/21 02:42:34;;;;;;;9.77;9.10;;;;;;;;;;6210695;23;20009;-82
2022/07/21 02:45:00;;;;;;;9.48;8.68;;;;;;;;;;6210804;23;20015;-82
2022/07/21 02:47:26;;;;;;;9.65;8.85;;;;;;;;;;6210263;23;20001;-82
2022/07/21 02:49:52;;;;;;;10.85;8.27;;;;;;;;;;6210448;23;20352;-81
2022/07/21 02:52:19;;;;;;;8.73;8.13;;;;;;;;;;6210997;23;20079;-81
2022/07/21 02:54:44;;;;;;;9.75;9.13;;;;;;;;;;6210562;23;20476;-81
2022/07/21 02:57:10;;;;;;;9.93;8.95;;;;;;;;;;6210995;23;20019;-81
2022/07/21 02:59:36;;;;;;;11.52;10.65;;;;;;;;;;6211188;23;20427;-82
2022/07/21 03:02:02;;;;;;;10.57;9.80;;;;;;;;;;6210302;23;20028;-82
2022/07/21 03:04:28;;;;;;;9.52;8.85;;;;;;;;;;6210343;23;20040;-82
2022/07/21 03:06:54;;;;;;;10.05;8.75;;;;;;;;;;6210141;23;20016;-82
2022/07/21 03:09:20;;;;;;;9.68;9.07;;;;;;;;;;6211066;23;20009;-82
2022/07/21 03:11:46;;;;;;;9.95;9.15;;;;;;;;;;6210754;23;20058;-81
2022/07/21 03:14:12;;;;;;;9.32;8.57;;;;;;;;;;6210481;23;20001;-82
2022/07/21 03:16:38;;;;;;;9.50;8.80;;;;;;;;;;6210614;23;20005;-82
2022/07/21 03:19:04;;;;;;;9.13;8.38;;;;;;;;;;6210364;23;20012;-82
2022/07/21 03:21:30;;;;;;;10.30;9.40;;;;;;;;;;6210226;23;20111;-81
2022/07/21 03:23:56;;;;;;;13.30;10.07;;;;;;;;;;6210922;23;20087;-82
2022/07/21 03:26:22;;;;;;;9.15;8.52;;;;;;;;;;6212042;23;20080;-80
2022/07/21 03:28:48;;;;;;;10.40;9.50;;;;;;;;;;6185804;23;20001;-81
2022/07/21 03:31:14;;;;;;;9.40;8.70;;;;;;;;;;6212232;23;20019;-82
2022/07/21 03:33:40;;;;;;;10.25;9.35;;;;;;;;;;6212548;23;20009;-82
2022/07/21 03:36:07;;;;;;;11.25;10.40;;;;;;;;;;6211603;23;20009;-82
2022/07/21 03:38:33;;;;;;;10.15;9.30;;;;;;;;;;6212166;23;20582;-82
2022/07/21 03:40:59;;;;;;;9.75;9.05;;;;;;;;;;6211646;23;20432;-82
2022/07/21 03:43:25;;;;;;;11.27;10.20;;;;;;;;;;6211796;23;20001;-81
2022/07/21 03:45:51;;;;;;;10.95;9.98;;;;;;;;;;6212356;23;20008;-81
2022/07/21 03:48:17;;;;;;;11.15;10.18;;;;;;;;;;6211629;23;20005;-81
2022/07/21 03:50:43;;;;;;;10.77;9.88;;;;;;;;;;6211888;23;20063;-81
2022/07/21 03:53:09;;;;;;;11.98;10.95;;;;;;;;;;6211911;23;20443;-82
2022/07/21 03:55:35;;;;;;;11.15;10.18;;;;;;;;;;6212219;23;20008;-81
2022/07/21 03:58:03;;;;;;;11.57;10.48;;;;;;;;;;6212352;23;20001;-82
2022/07/21 04:00:29;;;;;;;;;;;;;;;;;;6212139;23;20488;-82
2022/07/21 04:02:55;;;;;;;11.25;10.18;;;;;;;;;;6212231;23;19956;-81
2022/07/21 04:05:21;;;;;;;14.07;10.77;;;;;;;;;;6211416;23;20005;-81
2022/07/21 04:07:48;;;;;;;11.20;10.10;;;21.30;69.50;;;;;;6212624;23;20004;-81
2022/07/21 04:10:14;;;;;;;;;;;;;;;;;;6212274;23;20041;-83
2022/07/21 04:12:41;;;;;;;8.85;8.18;;;;;;;;;;6212334;23;20278;-81
2022/07/21 04:15:07;;;;;;;8.88;8.07;;;;;;;;;;6211745;23;20458;-82
2022/07/21 04:17:33;;;;;;;9.20;8.65;;;;;;;;;;6211444;23;20020;-81
2022/07/21 04:19:59;;;;;;;10.57;9.80;;;;;;;;;;6211347;23;20447;-82
2022/07/21 04:22:25;;;;;;;9.57;8.93;;;;;;;;;;6211980;23;20430;-81
2022/07/21 04:24:51;;;;;;;10.77;9.77;;;;;;;;;;6211841;23;20036;-81
2022/07/21 04:27:17;;;;;;;9.68;8.90;;;;;;;;;;6212049;23;20008;-81
2022/07/21 04:29:43;;;;;;;9.57;8.80;;;;;;;;;;6211700;23;20752;-81
2022/07/21 04:32:09;;;;;;;9.27;8.50;;;;;;;;;;6212368;23;20004;-81
2022/07/21 04:34:35;;;;;;;12.70;11.07;;;;;;;;;;6210751;23;20032;-81
2022/07/21 04:37:01;;;;;;;9.88;8.93;;;;;;;;;;6211939;23;20005;-81
2022/07/21 04:39:28;;;;;;;9.80;9.00;;;;;;;;;;6212026;23;20024;-81
2022/07/21 04:41:54;;;;;;;9.40;8.80;;;;;;;;;;6211467;23;20012;-81
2022/07/21 04:44:20;;;;;;;11.52;10.13;;;;;;;;;;6184775;23;20009;-81
2022/07/21 04:46:46;;;;;;;10.57;9.88;;;;;;;;;;6211541;23;20463;-81
2022/07/21 04:49:12;;;;;;;11.38;10.38;;;;;;;;;;6211144;23;20061;-81
2022/07/21 04:51:40;;;;;;;10.95;10.18;;;;;;;;;;6212114;23;20012;-82
2022/07/21 04:54:06;;;;;;;11.05;10.18;;;;;;;;;;6210721;23;20006;-81
2022/07/21 04:56:34;;;;;;;11.20;10.27;;;;;;;;;;6211821;23;20065;-81
2022/07/21 04:59:00;;;;;;;13.32;10.00;;;;;;;;;;6211901;23;20391;-82
2022/07/21 05:01:26;;;;;;;11.00;9.98;;;;;;;;;;6211797;23;20398;-80
2022/07/21 05:03:52;;;;;;;12.48;10.15;;;;;;;;;;6211108;23;20091;-81
2022/07/21 05:06:18;;;;;;;16.90;9.95;;;20.60;73.00;;;;;;6211303;23;20009;-81
2022/07/21 05:08:44;;;;;;;10.20;8.93;;;;;;;;;;6211498;23;19997;-81
2022/07/21 05:11:10;;;;;;;9.40;8.75;;;;;;;;;;6210901;23;20024;-81
2022/07/21 05:13:36;;;;;;;11.02;10.13;;;;;;;;;;6211372;23;20355;-80
2022/07/21 05:16:02;;;;;;;11.02;10.13;;;;;;;;;;6211296;23;20011;-81
2022/07/21 05:18:28;;;;;;;10.15;9.35;;;;;;;;;;6210774;23;20059;-81
2022/07/21 05:20:54;;;;;;;12.43;10.93;;;;;;;;;;6207516;23;20015;-81
2022/07/21 05:23:20;;;;;;;10.55;9.75;;;;;;;;;;6209782;23;20383;-81
2022/07/21 05:25:46;;;;;;;9.40;8.80;;;;;;;;;;6209972;23;20001;-81
2022/07/21 05:28:12;;;;;;;10.95;10.07;;;;;;;;;;6209625;23;20000;-90
2022/07/21 05:30:38;;;;;;;11.40;9.43;;;;;;;;;;6186620;23;20021;-91
2022/07/21 05:33:04;;;;;;;13.25;10.20;;;;;;;;;;6213755;23;20001;-90
2022/07/21 05:35:30;;;;;;;11.02;10.10;;;;;;;;;;6187199;23;20009;-88
2022/07/21 05:37:56;;;;;;;11.07;9.95;;;;;;;;;;6187187;23;20005;-90
2022/07/21 05:40:22;;;;;;;10.95;9.43;;;;;;;;;;6213381;23;20004;-89
2022/07/21 05:42:48;;;;;;;11.82;10.05;;;;;;;;;;6213156;23;20004;-90
2022/07/21 05:45:14;;;;;;;12.90;9.55;;;;;;;;;;6213495;23;20014;-90
2022/07/21 05:47:41;;;;;;;10.80;9.88;;;;;;;;;;6212989;23;20061;-90
2022/07/21 05:50:07;;;;;;;10.10;9.30;;;22.00;73.40;;;;;;6212485;23;20043;-90
2022/07/21 05:52:33;;;;;;;9.27;8.70;;;;;;;;;;6187135;23;20638;-89
2022/07/21 05:55:00;;;;;;;12.07;9.57;;;;;;;;;;6213728;23;20345;-84
2022/07/21 05:57:26;;;;;;;10.02;9.15;;;;;;;;;;6208568;23;20012;-85
2022/07/21 05:59:52;;;;;;;10.48;9.45;;;;;;;;;;6209126;23;20031;-82
2022/07/21 06:02:18;;;;;;;11.57;9.02;;;;;;;;;;6209659;23;20005;-84
2022/07/21 06:04:44;;;;;;;18.13;9.98;;;;;;;;;;6209023;23;20039;-83
2022/07/21 06:07:10;;;;;;;11.85;10.68;;;;;;;;;;6183095;23;20491;-84
2022/07/21 06:09:36;;;;;;;8.45;7.75;;;;;;;;;;6183291;23;20055;-83
2022/07/21 06:12:02;;;;;;;8.18;7.47;;;;;;;;;;6209896;23;20005;-83
2022/07/21 06:14:28;;;;;;;9.30;8.50;;;;;;;;;;6210474;23;20009;-83
2022/07/21 06:16:54;;;;;;;8.85;8.02;;;;;;;;;;6209779;23;20624;-83
2022/07/21 06:19:20;;;;;;;8.85;8.07;;;;;;;;;;6182790;23;20004;-83
2022/07/21 06:21:46;;;;;;;8.93;8.00;;;;;;;;;;6209943;23;20054;-83
2022/07/21 06:24:13;;;;;;;8.30;7.55;;;;;;;;;;6209223;23;20004;-83
2022/07/21 06:26:39;;;;;;;8.18;7.03;;;;;;;;;;6182873;23;20060;-83
2022/07/21 06:29:06;;;;;;;8.55;7.47;;;;;;;;;;6189976;23;20011;-93
2022/07/21 06:31:32;;;;;;;8.00;7.37;;;;;;;;;;6213097;23;20012;-89
2022/07/21 06:33:58;;;;;;;6.95;6.45;;;;;;;;;;6213261;23;20091;-89
2022/07/21 06:36:24;;;;;;;6.97;6.25;;;;;;;;;;6186222;23;20036;-90
2022/07/21 06:38:50;;;;;;;8.40;7.63;;;;;;;;;;6184816;23;20383;-91
2022/07/21 06:41:16;;;;;;;6.97;6.47;;;;;;;;;;6212900;23;20009;-89
2022/07/21 06:43:42;;;;;;;6.35;5.75;;;;;;;;;;6213265;23;20008;-90
2022/07/21 06:46:08;;;;;;;6.18;5.68;;;;;;;;;;6213448;23;20012;-91
2022/07/21 06:48:34;;;;;;;10.75;7.10;;;;;;;;;;6214894;23;20005;-92
2022/07/21 06:51:00;;;;;;;6.07;5.65;;;;;;;;;;6188098;23;20012;-94
2022/07/21 06:53:26;;;;;;;8.20;6.10;;;;;;;;;;6215671;23;20332;-94
2022/07/21 06:55:52;;;;;;;5.55;5.15;;;;;;;;;;6187933;23;20429;-93
2022/07/21 06:58:20;;;;;;;5.97;5.67;;;;;;;;;;6214113;23;20435;-96
2022/07/21 07:00:46;;;;;;;5.00;4.63;;;;;;;;;;6199759;23;20008;-90
2022/07/21 07:03:12;;;;;;;5.72;5.22;;;;;;;;;;6212620;23;20455;-90
2022/07/21 07:05:39;;;;;;;5.68;5.28;;;;;;;;;;6186024;23;20008;-90
2022/07/21 07:08:05;;;;;;;10.13;5.40;;;;;;;;;;6220019;23;20000;-96
2022/07/21 07:10:31;;;;;;;4.68;4.38;;;;;;;;;;6218521;23;20012;-95
2022/07/21 07:12:57;;;;;;;5.03;4.68;;;;;;;;;;6193386;23;20316;-93
2022/07/21 07:15:24;;;;;;;4.22;3.92;;;;;;;;;;6217484;23;20035;-94
2022/07/21 07:17:50;;;;;;;7.10;4.27;;;;;;;;;;6227255;22;20011;-96
2022/07/21 07:20:16;;;;;;;4.55;4.25;;;;;;;;;;6228936;23;20004;-96
2022/07/21 07:22:42;;;;;;;4.00;3.78;;;;;;;;;;6187673;23;20009;-92
2022/07/21 07:25:08;;;;;;;9.75;4.00;;;;;;;;;;6211829;23;20050;-92
2022/07/21 07:27:35;;;;;;;4.23;3.93;;;;;;;;;;6223112;23;20054;-96
2022/07/21 07:30:01;;;;;;;4.03;3.78;;;;;;;;;;6213992;23;20003;-96
2022/07/21 07:32:28;;;;;;;3.28;2.92;;;;;;;;;;6216928;23;19988;-94
2022/07/21 07:34:54;;;;;;;9.43;3.30;;;;;;;;;;6218398;23;20067;-93
2022/07/21 07:37:20;;;;;;;5.72;3.20;;;;;;;;;;6187925;23;20028;-93
2022/07/21 07:39:46;;;;;;;2.78;2.53;;;;;;;;;;6213813;23;20031;-92
2022/07/21 07:42:12;;;;;;;4.63;2.97;;;;;;;;;;6216536;23;20039;-96
2022/07/21 07:44:38;;;;;;;4.22;2.58;;;;;;;;;;6215296;23;20009;-93
2022/07/21 07:47:04;;;;;;;3.33;2.72;;;;;;;;;;6192908;23;20012;-92
2022/07/21 07:49:30;;;;;;;3.03;2.28;;;27.00;56.30;;;;;;6186426;23;20444;-93
2022/07/21 07:51:57;;;;;;;7.32;2.17;;;;;;;;;;6187889;23;20012;-92
2022/07/21 07:54:23;;;;;;;1.40;1.30;;;;;;;;;;6189123;23;20008;-96
2022/07/21 07:56:49;;;;;;;5.47;0.93;;;;;;;;;;6214416;23;20084;-96
2022/07/21 07:59:15;;;;;;;1.13;0.70;;;;;;;;;;6187095;23;20039;-93
2022/07/21 08:01:41;;;;;;;1.50;0.82;;;;;;;;;;6188372;23;20024;-93
2022/07/21 08:04:07;;;;;;;1.42;0.80;;;;;;;;;;6196081;23;20525;-88
2022/07/21 08:06:33;;;;;;;2.35;1.17;;;;;;;;;;6210688;23;20475;-87
2022/07/21 08:08:59;;;;;;;2.20;0.82;;;;;;;;;;6208593;23;20385;-88
2022/07/21 08:11:26;;;;;;;1.50;0.70;;;;;;;;;;6211443;23;20040;-91
2022/07/21 08:13:52;;;;;;;1.30;0.65;;;;;;;;;;6207290;23;20669;-90
2022/07/21 08:16:18;;;;;;;2.15;0.90;;;;;;;;;;6210458;23;20005;-89
2022/07/21 08:18:44;;;;;;;3.25;0.70;;;;;;;;;;6208304;23;20004;-85
2022/07/21 08:21:11;;;;;;;3.40;0.77;;;;;;;;;;6209093;23;20016;-85
2022/07/21 08:23:37;;;;;;;1.33;0.88;;;;;;;;;;6207279;23;20071;-84
2022/07/21 08:26:04;;;;;;;2.95;0.75;;;36.40;38.30;;;;;;6205267;23;20039;-84
2022/07/21 08:28:30;;;;;;;1.92;0.80;;;;;;;;;;6208874;23;20008;-84
2022/07/21 08:30:56;;;;;;;2.20;0.82;;;;;;;;;;6209256;23;20023;-84
2022/07/21 08:33:22;;;;;;;1.30;0.88;;;;;;;;;;6207975;23;20005;-84
2022/07/21 08:35:48;;;;;;;2.17;1.05;;;;;;;;;;6201839;23;20032;-84
2022/07/21 08:38:13;;;;;;;;;;;36.20;37.00;;;;;;6210204;23;19997;-83
2022/07/21 08:40:42;;;;;;;1.95;0.60;;;36.40;37.30;;;;;;6208600;23;20323;-86
2022/07/21 08:43:09;;;;;;;2.67;0.80;;;;;;;;;;6206276;23;20005;-85
2022/07/21 08:45:36;;;;;;;1.67;0.68;;;;;;;;;;6200241;23;20446;-84
2022/07/21 08:48:02;;;;;;;3.33;0.88;;;;;;;;;;6209330;23;20007;-86
2022/07/21 08:50:33;;;;;;;4.30;1.00;;;37.70;35.90;;;;;;6206811;23;20020;-85
2022/07/21 08:52:59;;;;;;;1.13;0.82;;;;;;;;;;6208641;23;20040;-85
2022/07/21 08:55:27;;;;;;;;;;;36.70;36.60;;;;;;6203067;23;20011;-84
2022/07/21 08:57:53;;;;;;;1.42;0.90;;;;;;;;;;6208599;23;20250;-85
2022/07/21 09:00:19;;;;;;;1.83;1.10;;;;;;;;;;6208024;23;20001;-86
2022/07/21 09:02:45;;;;;;;2.35;1.23;;;;;;;;;;6206264;23;20009;-85
2022/07/21 09:05:11;;;;;;;2.65;1.05;;;;;;;;;;6202686;23;20321;-85
2022/07/21 09:07:57;;;;;;;1.98;0.95;;;38.60;35.50;;;;;;6209392;23;20017;-85
2022/07/21 09:10:26;;;;;;;2.97;0.90;;;38.90;34.70;;;;;;6207914;23;20067;-85
2022/07/21 09:13:20;;;;;;;2.05;0.98;;;39.50;33.80;;;;;;6207726;23;20004;-85
2022/07/21 09:15:47;;;;;;;7.50;0.95;;;;;;;;;;6198230;23;20008;-86
2022/07/21 09:18:16;;;;;;;3.28;0.93;;;39.20;33.30;;;;;;6209243;23;19997;-85
2022/07/21 09:20:51;;;;;;;2.25;1.05;;;39.90;33.30;;;;;;6179065;23;20009;-87
2022/07/21 09:23:18;;;;;;;3.13;1.48;;;39.00;33.10;;;;;;6206970;23;20008;-85
2022/07/21 09:25:45;;;;;;;2.80;1.25;;;38.70;33.50;;;;;;6202093;23;20013;-85
2022/07/21 09:28:13;;;;;;;4.93;1.10;;;38.50;33.80;;;;;;6208817;23;19997;-86
2022/07/21 09:31:06;;;;;;;2.30;0.95;;;38.60;33.50;;;;;;6182233;23;20043;-82
2022/07/21 09:33:42;;;;;;;9.48;1.40;;;;;;;;;;6198187;23;20001;-83
2022/07/21 09:36:08;;;;;;;3.42;1.10;;;;;;;;;;6204534;23;20036;-81
2022/07/21 09:38:37;;;;;;;2.67;1.50;;;39.20;34.20;;;;;;6209163;23;20463;-82
2022/07/21 09:41:14;;;;;;;5.70;1.27;;;39.40;33.40;;;;;;6207630;23;20535;-82
2022/07/21 09:43:41;;;;;;;3.55;1.52;;;;;;;;;;6206676;23;20071;-84
2022/07/21 09:46:09;;;;;;;4.90;1.92;;;;;;;;;;6177541;23;20004;-84
2022/07/21 09:48:37;;;;;;;2.17;1.15;;;39.00;33.50;;;;;;6181983;23;20087;-84
2022/07/21 09:51:34;;;;;;;6.43;2.72;;;39.20;33.10;;;;;;6206167;23;20058;-83
2022/07/21 09:54:05;;;;;;;3.85;1.25;;;;;;;;;;6159334;23;20092;-85
2022/07/21 09:56:34;;;;;;;3.92;1.55;;;38.40;33.50;;;;;;6179643;23;20039;-85
2022/07/21 09:59:01;;;;;;;3.22;1.40;;;;;;;;;;6209379;23;20004;-85
2022/07/21 10:01:28;;;;;;;1.90;1.33;;;;;;;;;;6207018;23;20127;-86
2022/07/21 10:03:56;;;;;;;2.53;1.50;;;38.80;33.70;;;;;;6204401;23;20546;-84
2022/07/21 10:06:34;;;;;;;2.05;1.48;;;38.90;33.20;;;;;;6206128;23;20008;-83
2022/07/21 10:09:01;;;;;;;3.05;1.60;;;;;;;;;;6208482;23;20020;-83
2022/07/21 10:11:27;;;;;;;5.18;1.65;;;;;;;;;;6207128;23;20131;-84
2022/07/21 10:13:54;;;;;;;2.40;1.83;;;;;;;;;;6204857;23;20001;-83
2022/07/21 10:16:20;;;;;;;3.03;1.40;;;;;;;;;;6205913;23;20009;-83
2022/07/21 10:19:05;;;;;;;8.00;2.03;;;;;;;;;;6208947;23;20028;-83
2022/07/21 10:21:58;;;;;;;4.60;2.13;;;38.90;32.40;;;;;;6208119;23;20013;-83
2022/07/21 10:24:27;;;;;;;2.83;1.50;;;39.30;32.10;;;;;;6202263;23;20016;-85
2022/07/21 10:27:07;;;;;;;2.28;1.20;;;39.10;32.10;;;;;;6207283;23;20095;-84
2022/07/21 10:29:48;;;;;;;3.70;1.45;;;;;;;;;;6209317;23;20655;-84
2022/07/21 10:32:18;;;;;;;4.30;1.45;;;39.30;32.50;;;;;;6208757;23;20025;-84
2022/07/21 10:34:44;;;;;;;2.13;1.20;;;;;;;;;;6203884;23;20004;-84
2022/07/21 10:37:10;;;;;;;;;;;;;;;;;;6210440;23;20092;-83
2022/07/21 10:39:41;;;;;;;2.15;1.10;;;;;;;;;;6211294;23;19904;-83
2022/07/21 10:42:16;;;;;;;9.07;2.25;;;39.60;32.70;;;;;;6210121;23;20510;-84
2022/07/21 10:44:46;;;;;;;5.57;1.43;;;39.70;33.80;;;;;;6204475;23;20087;-83
2022/07/21 10:47:25;;;;;;;2.08;1.33;;;40.10;31.70;;;;;;6209216;23;20001;-83
2022/07/21 10:49:56;;;;;;;2.13;1.10;;;40.50;32.20;;;;;;6210673;23;20016;-83
2022/07/21 10:52:34;;;;;;;5.43;1.67;;;40.60;31.00;;;;;;6209972;23;20337;-83
2022/07/21 10:55:10;;;;;;;3.22;1.13;;;;;;;;;;6205170;23;20343;-82
2022/07/21 10:57:44;;;;;;;2.38;1.48;;;40.20;31.80;;;;;;6210247;23;20039;-82
2022/07/21 11:00:29;;;;;;;2.65;2.17;;;;;;;;;;6210449;23;20009;-83
2022/07/21 11:03:03;;;;;;;1.15;0.77;;;39.80;32.80;;;;;;6209026;23;20047;-83
2022/07/21 11:05:30;;;;;;;3.58;1.45;;;;;;;;;;6203745;23;20005;-82
2022/07/21 11:08:16;;;;;;;4.20;1.85;;;;;;;;;;6210611;23;20008;-83
2022/07/21 11:10:45;;;;;;;6.30;1.95;;;38.80;32.90;;;;;;6210287;23;20023;-82
2022/07/21 11:13:11;;;;;;;2.05;1.08;;;;;;;;;;6182396;23;20347;-82
2022/07/21 11:15:48;;;;;;;2.20;1.52;;;38.10;34.20;;;;;;6178061;23;20624;-84
2022/07/21 11:18:18;;;;;;;4.63;1.80;;;37.50;34.80;;;;;;6209296;23;20327;-83
2022/07/21 11:20:44;;;;;;;5.03;1.17;;;;;;;;;;6182285;23;20013;-81
2022/07/21 11:23:10;;;;;;;2.40;1.45;;;;;;;;;;6209244;23;20020;-82
2022/07/21 11:25:36;;;;;;;3.38;1.98;;;;;;;;;;6204685;23;20055;-83
2022/07/21 11:28:02;;;;;;;4.20;1.40;;;;;;;;;;6210130;23;20005;-83
2022/07/21 11:30:28;;;;;;;3.33;1.73;;;;;;;;;;6209950;23;20025;-82
2022/07/21 11:32:55;;;;;;;4.53;2.28;;;;;;;;;;6208540;23;20443;-83
2022/07/21 11:35:21;;;;;;;2.55;1.52;;;;;;;;;;6205170;23;20059;-82
2022/07/21 11:37:47;;;;;;;2.80;1.40;;;;;;;;;;6182835;23;20004;-83
2022/07/21 11:40:17;;;;;;;2.38;1.80;;;;;;;;;;6208919;23;20004;-81
2022/07/21 11:42:45;;;;;;;2.65;1.77;;;;;;;;;;6209584;23;20115;-86
2022/07/21 11:45:12;;;;;;;2.22;1.50;;;;;;;;;;6203323;23;19997;-87
2022/07/21 11:47:38;;;;;;;4.63;1.77;;;;;;;;;;6209410;23;20038;-86
2022/07/21 11:50:06;;;;;;;1.80;1.60;;;;;;;;;;6209435;23;20036;-86
2022/07/21 11:52:33;;;;;;;7.78;2.20;;;;;;;;;;6208670;23;20004;-90
2022/07/21 11:55:00;;;;;;;1.63;1.40;;;;;;;;;;6177329;23;20013;-86
2022/07/21 11:57:27;;;;;;;5.80;2.30;;;;;;;;;;6210567;23;20036;-86
2022/07/21 11:59:53;;;;;;;2.75;1.38;;;;;;;;;;6208713;23;20470;-87
2022/07/21 12:02:24;;;;;;;3.92;2.15;;;;;;;;;;6209093;23;20446;-86
2022/07/21 12:04:53;;;;;;;2.80;1.88;;;;;;;;;;6202000;23;20020;-86
2022/07/21 12:07:29;;;;;;;2.60;1.55;;;33.30;39.90;;;;;;6210067;23;20455;-86
2022/07/21 12:10:01;;;;;;;5.00;2.10;;;33.20;40.40;;;;;;6233504;23;20457;-85
2022/07/21 12:12:39;;;;;;;4.30;2.72;;;33.00;38.90;;;;;;6232237;23;20108;-84
2022/07/21 12:15:13;;;;;;;2.42;2.20;;;32.90;40.10;;;;;;6203690;23;20081;-84
2022/07/21 12:17:52;;;;;;;3.85;2.25;;;33.00;40.20;;;;;;6208717;23;20011;-84
2022/07/21 12:20:41;;;;;;;2.28;1.70;;;33.00;40.20;;;;;;6209586;23;20020;-84
2022/07/21 12:23:27;;;;;;;2.80;1.88;;;;;;;;;;6208014;23;20019;-84
2022/07/21 12:25:54;;;;;;;14.63;2.15;;;33.20;47.80;;;;;;6204635;23;20324;-86
2022/07/21 12:28:19;;;;;;;;;;;;;;;;;;6210291;23;20011;-86
2022/07/21 12:30:47;;;;;;;3.22;2.42;;;;;;;;;;6233134;23;19911;-85
2022/07/21 12:33:14;;;;;;;4.03;2.20;;;;;;;;;;6207949;23;20005;-84
2022/07/21 12:35:59;;;;;;;8.05;2.35;;;32.50;39.30;;;;;;6202920;23;20005;-85
2022/07/21 12:38:35;;;;;;;2.22;1.60;;;;;;;;;;6210201;23;20003;-86
2022/07/21 12:41:01;;;;;;;;;;;32.50;40.50;;;;;;6209937;23;20346;-85
2022/07/21 12:43:27;;;;;;;3.83;2.03;;;;;;;;;;6208193;23;19931;-85
2022/07/21 12:46:09;;;;;;;2.15;1.70;;;32.60;41.00;;;;;;6203985;23;20004;-84
2022/07/21 12:48:36;;;;;;;3.25;2.10;;;32.40;40.70;;;;;;6232595;23;20009;-85
2022/07/21 12:51:01;;;;;;;;;;;32.50;40.50;;;;;;6209872;23;20020;-82
2022/07/21 12:53:28;;;;;;;5.37;2.73;;;;;;;;;;6208135;23;20015;-83
2022/07/21 12:55:54;;;;;;;5.97;3.25;;;;;;;;;;6203243;23;20335;-85
2022/07/21 12:58:20;;;;;;;3.97;2.27;;;;;;;;;;6209342;23;20004;-84
2022/07/21 13:00:46;;;;;;;3.43;1.83;;;;;;;;;;6209262;23;19997;-84
2022/07/21 13:03:12;;;;;;;3.53;1.90;;;;;;;;;;6208225;23;20046;-86
2022/07/21 13:05:38;;;;;;;5.13;2.58;;;;;;;;;;6203283;23;20026;-85
2022/07/21 13:08:04;;;;;;;2.78;2.35;;;32.20;59.50;;;;;;6182794;23;19996;-83
2022/07/21 13:10:30;;;;;;;5.20;2.10;;;;;;;;;;6207618;23;20087;-83
2022/07/21 13:12:56;;;;;;;2.73;2.27;;;;;;;;;;6208972;23;20070;-82
2022/07/21 13:15:22;;;;;;;4.20;2.95;;;;;;;;;;6201233;23;19997;-83
2022/07/21 13:17:48;;;;;;;9.00;2.97;;;;;;;;;;6208542;23;20559;-82
2022/07/21 13:20:15;;;;;;;5.32;2.55;;;;;;;;;;6208801;23;20251;-83
2022/07/21 13:22:41;;;;;;;2.90;2.38;;;;;;;;;;6207896;23;20012;-82
2022/07/21 13:25:07;;;;;;;4.57;2.80;;;;;;;;;;6203527;23;20023;-82
2022/07/21 13:27:34;;;;;;;3.05;2.05;;;31.80;41.10;;;;;;6208582;23;20235;-84
2022/07/21 13:30:00;;;;;;;;;;;31.60;41.00;;;;;;6210087;23;20534;-81
2022/07/21 13:32:26;;;;;;;3.43;2.53;;;;;;;;;;6208091;23;19928;-82
2022/07/21 13:34:52;;;;;;;2.95;1.83;;;;;;;;;;6203438;23;20211;-82
2022/07/21 13:37:18;;;;;;;5.07;2.70;;;;;;;;;;6207868;23;20772;-82
2022/07/21 13:39:44;;;;;;;11.98;3.50;;;;;;;;;;6182893;23;20003;-83
2022/07/21 13:42:10;;;;;;;4.40;2.07;;;;;;;;;;6209652;23;20032;-82
2022/07/21 13:44:39;;;;;;;2.50;2.30;;;;;;;;;;6201928;23;20742;-82
2022/07/21 13:47:08;;;;;;;3.33;2.42;;;;;;;;;;6181512;23;20016;-84
2022/07/21 13:49:34;;;;;;;3.25;2.40;;;;;;;;;;6208850;23;20108;-82
2022/07/21 13:52:00;;;;;;;2.83;2.40;;;;;;;;;;6208885;23;20012;-82
2022/07/21 13:54:26;;;;;;;3.65;2.58;;;;;;;;;;6203291;23;20001;-82
2022/07/21 13:56:52;;;;;;;5.40;2.92;;;;;;;;;;6207042;23;20055;-82
2022/07/21 13:59:18;;;;;;;4.57;2.90;;;;;;;;;;6208371;23;20001;-83
2022/07/21 14:01:44;;;;;;;3.60;2.08;;;;;;;;;;6208332;23;20706;-83
2022/07/21 14:04:10;;;;;;;3.77;2.33;;;;;;;;;;6205222;23;20094;-82
2022/07/21 14:06:36;;;;;;;4.33;2.47;;;;;;;;;;6206163;23;20092;-83
2022/07/21 14:09:03;;;;;;;5.20;3.05;;;;;;;;;;6208044;23;20082;-83
2022/07/21 14:11:29;;;;;;;3.97;2.40;;;;;;;;;;6212228;23;20017;-95
2022/07/21 14:13:56;;;;;;;7.03;2.37;;;31.30;41.00;;;;;;6210447;23;20511;-94
2022/07/21 14:16:21;;;;;;;;;;;31.20;40.90;;;;;;6210833;23;20015;-93
2022/07/21 14:18:47;;;;;;;5.20;3.00;;;;;;;;;;6186109;23;19935;-92
2022/07/21 14:21:13;;;;;;;6.30;2.60;;;;;;;;;;6211984;23;20012;-91
2022/07/21 14:23:39;;;;;;;4.68;2.65;;;;;;;;;;6211070;23;20012;-91
2022/07/21 14:26:05;;;;;;;13.97;2.83;;;;;;;;;;6209829;23;20011;-93